Augusta, Illinois
Current Conditions -  °F | °C
As of 5:03 AM on Saturday 25 Oct 2014 (Local Time) from KUIN Reporting Station
Haze Haze  
Wind Chill: 56°   Ceiling: Unl
Heat Index: 56°   Visibility: 2mi
Dew Point: 56°   Wind: 6mph
Humidity: 100%   Direction: 270°W
Pressure: 29.99"   Gusts: NA
Location:  40.23°N, 90.95°W
Report Text: KUIN 251003Z AUTO 27005KT 2SM BR CLR 13/13 A2999 RMK AO2 T01330133
Loading
Personal Weather Stations






























Interactive Weather Map New forecast layout! Learn more

10-Day Weather Forecast

Advertisements
Track Severe Weather on mobile